sensor_id;sensor_type;location;lat;lon;timestamp;temperature;humidity
9375;DHT22;4727;51.202;6.344;2022-10-16T00:01:20;13.60;99.90
9375;DHT22;4727;51.202;6.344;2022-10-16T00:03:47;13.60;99.90
9375;DHT22;4727;51.202;6.344;2022-10-16T00:06:14;13.50;99.90
9375;DHT22;4727;51.202;6.344;2022-10-16T00:08:40;13.60;99.90
9375;DHT22;4727;51.202;6.344;2022-10-16T00:11:14;13.60;99.90
9375;DHT22;4727;51.202;6.344;2022-10-16T00:13:41;13.60;99.90
9375;DHT22;4727;51.202;6.344;2022-10-16T00:16:08;13.60;99.90
9375;DHT22;4727;51.202;6.344;2022-10-16T00:18:34;13.70;99.90
9375;DHT22;4727;51.202;6.344;2022-10-16T00:21:08;13.60;99.90
9375;DHT22;4727;51.202;6.344;2022-10-16T00:23:34;13.60;99.90
9375;DHT22;4727;51.202;6.344;2022-10-16T00:26:03;13.60;99.90
9375;DHT22;4727;51.202;6.344;2022-10-16T00:28:29;13.70;99.90
9375;DHT22;4727;51.202;6.344;2022-10-16T00:30:54;13.70;99.90
9375;DHT22;4727;51.202;6.344;2022-10-16T00:33:20;13.60;99.90
9375;DHT22;4727;51.202;6.344;2022-10-16T00:35:46;13.70;99.90
9375;DHT22;4727;51.202;6.344;2022-10-16T00:38:12;13.70;99.90
9375;DHT22;4727;51.202;6.344;2022-10-16T00:40:37;13.70;99.90
9375;DHT22;4727;51.202;6.344;2022-10-16T00:43:12;13.80;99.90
9375;DHT22;4727;51.202;6.344;2022-10-16T00:45:37;13.70;99.90
9375;DHT22;4727;51.202;6.344;2022-10-16T00:48:03;13.70;99.90
9375;DHT22;4727;51.202;6.344;2022-10-16T00:50:32;13.70;99.90
9375;DHT22;4727;51.202;6.344;2022-10-16T00:52:59;13.70;99.90
9375;DHT22;4727;51.202;6.344;2022-10-16T00:55:26;13.60;99.90
9375;DHT22;4727;51.202;6.344;2022-10-16T00:57:53;13.70;99.90
9375;DHT22;4727;51.202;6.344;2022-10-16T01:00:26;13.70;99.90
9375;DHT22;4727;51.202;6.344;2022-10-16T01:02:56;13.70;99.90
9375;DHT22;4727;51.202;6.344;2022-10-16T01:05:29;13.60;99.90
9375;DHT22;4727;51.202;6.344;2022-10-16T01:08:08;13.60;99.90
9375;DHT22;4727;51.202;6.344;2022-10-16T01:10:55;13.60;99.90
9375;DHT22;4727;51.202;6.344;2022-10-16T01:13:27;13.50;99.90
9375;DHT22;4727;51.202;6.344;2022-10-16T01:18:30;13.50;99.90
9375;DHT22;4727;51.202;6.344;2022-10-16T01:21:05;13.50;99.90
9375;DHT22;4727;51.202;6.344;2022-10-16T01:26:35;13.50;99.90
9375;DHT22;4727;51.202;6.344;2022-10-16T01:29:12;13.50;99.90
9375;DHT22;4727;51.202;6.344;2022-10-16T01:31:41;13.50;99.90
9375;DHT22;4727;51.202;6.344;2022-10-16T01:34:15;13.60;99.90
9375;DHT22;4727;51.202;6.344;2022-10-16T01:36:56;13.60;99.90
9375;DHT22;4727;51.202;6.344;2022-10-16T01:39:25;13.50;99.90
9375;DHT22;4727;51.202;6.344;2022-10-16T01:42:07;13.40;99.90
9375;DHT22;4727;51.202;6.344;2022-10-16T01:44:35;13.40;99.90
9375;DHT22;4727;51.202;6.344;2022-10-16T01:47:03;13.40;99.90
9375;DHT22;4727;51.202;6.344;2022-10-16T01:49:35;13.40;99.90
9375;DHT22;4727;51.202;6.344;2022-10-16T01:52:05;13.50;99.90
9375;DHT22;4727;51.202;6.344;2022-10-16T01:54:34;13.50;67.10
9375;DHT22;4727;51.202;6.344;2022-10-16T01:57:01;13.50;33.20
9375;DHT22;4727;51.202;6.344;2022-10-16T01:59:31;13.50;35.90
9375;DHT22;4727;51.202;6.344;2022-10-16T02:02:06;13.50;1.00
9375;DHT22;4727;51.202;6.344;2022-10-16T02:04:39;13.40;23.10
9375;DHT22;4727;51.202;6.344;2022-10-16T02:07:05;13.40;1.00
9375;DHT22;4727;51.202;6.344;2022-10-16T02:09:35;13.40;1.00
9375;DHT22;4727;51.202;6.344;2022-10-16T02:12:08;13.30;1.00
9375;DHT22;4727;51.202;6.344;2022-10-16T02:14:37;13.50;1.00
9375;DHT22;4727;51.202;6.344;2022-10-16T02:17:14;13.40;1.00
9375;DHT22;4727;51.202;6.344;2022-10-16T02:19:40;13.50;1.00
9375;DHT22;4727;51.202;6.344;2022-10-16T02:22:09;13.50;1.00
9375;DHT22;4727;51.202;6.344;2022-10-16T02:27:22;13.70;1.00
9375;DHT22;4727;51.202;6.344;2022-10-16T02:29:55;13.50;1.00
9375;DHT22;4727;51.202;6.344;2022-10-16T02:32:28;13.60;1.00
9375;DHT22;4727;51.202;6.344;2022-10-16T02:34:56;13.60;1.00
9375;DHT22;4727;51.202;6.344;2022-10-16T02:37:23;13.50;1.00
9375;DHT22;4727;51.202;6.344;2022-10-16T02:39:50;13.60;1.00
9375;DHT22;4727;51.202;6.344;2022-10-16T02:42:17;13.50;99.90
9375;DHT22;4727;51.202;6.344;2022-10-16T02:44:43;13.60;99.90
9375;DHT22;4727;51.202;6.344;2022-10-16T02:47:09;13.60;1.00
9375;DHT22;4727;51.202;6.344;2022-10-16T02:49:34;13.50;99.90
9375;DHT22;4727;51.202;6.344;2022-10-16T02:52:00;13.50;99.90
9375;DHT22;4727;51.202;6.344;2022-10-16T02:54:25;13.50;1.00
9375;DHT22;4727;51.202;6.344;2022-10-16T02:56:51;13.50;99.90
9375;DHT22;4727;51.202;6.344;2022-10-16T02:59:17;13.50;99.90
9375;DHT22;4727;51.202;6.344;2022-10-16T03:01:42;13.50;99.90
9375;DHT22;4727;51.202;6.344;2022-10-16T03:04:08;13.60;99.90
9375;DHT22;4727;51.202;6.344;2022-10-16T03:06:34;13.50;99.90
9375;DHT22;4727;51.202;6.344;2022-10-16T03:08:59;13.60;99.90
9375;DHT22;4727;51.202;6.344;2022-10-16T03:11:25;13.60;99.90
9375;DHT22;4727;51.202;6.344;2022-10-16T03:13:51;13.50;99.90
9375;DHT22;4727;51.202;6.344;2022-10-16T03:16:17;13.50;99.90
9375;DHT22;4727;51.202;6.344;2022-10-16T03:18:43;13.50;99.90
9375;DHT22;4727;51.202;6.344;2022-10-16T03:21:08;13.40;99.90
9375;DHT22;4727;51.202;6.344;2022-10-16T03:23:34;13.60;99.90
9375;DHT22;4727;51.202;6.344;2022-10-16T03:25:59;13.50;99.90
9375;DHT22;4727;51.202;6.344;2022-10-16T03:28:25;13.50;99.90
9375;DHT22;4727;51.202;6.344;2022-10-16T03:30:51;13.40;99.90
9375;DHT22;4727;51.202;6.344;2022-10-16T03:33:16;13.50;99.90
9375;DHT22;4727;51.202;6.344;2022-10-16T03:35:42;13.40;99.90
9375;DHT22;4727;51.202;6.344;2022-10-16T03:38:07;13.40;99.90
9375;DHT22;4727;51.202;6.344;2022-10-16T03:40:33;13.40;99.90
9375;DHT22;4727;51.202;6.344;2022-10-16T03:42:59;13.50;99.90
9375;DHT22;4727;51.202;6.344;2022-10-16T03:45:25;13.30;99.90
9375;DHT22;4727;51.202;6.344;2022-10-16T03:47:51;13.40;99.90
9375;DHT22;4727;51.202;6.344;2022-10-16T03:50:17;13.30;99.90
9375;DHT22;4727;51.202;6.344;2022-10-16T03:52:42;13.30;99.90
9375;DHT22;4727;51.202;6.344;2022-10-16T03:55:08;13.30;99.90
9375;DHT22;4727;51.202;6.344;2022-10-16T03:57:33;13.30;99.90
9375;DHT22;4727;51.202;6.344;2022-10-16T03:59:59;13.20;99.90
9375;DHT22;4727;51.202;6.344;2022-10-16T04:02:25;13.20;99.90
9375;DHT22;4727;51.202;6.344;2022-10-16T04:04:50;13.10;99.90
9375;DHT22;4727;51.202;6.344;2022-10-16T04:07:16;13.20;1.00
9375;DHT22;4727;51.202;6.344;2022-10-16T04:09:42;13.20;99.90
9375;DHT22;4727;51.202;6.344;2022-10-16T04:12:07;13.10;99.90
9375;DHT22;4727;51.202;6.344;2022-10-16T04:14:33;13.10;99.90
9375;DHT22;4727;51.202;6.344;2022-10-16T04:16:59;13.00;1.00
9375;DHT22;4727;51.202;6.344;2022-10-16T04:19:24;13.00;1.00
9375;DHT22;4727;51.202;6.344;2022-10-16T04:21:50;13.00;1.00
9375;DHT22;4727;51.202;6.344;2022-10-16T04:24:16;13.00;1.00
9375;DHT22;4727;51.202;6.344;2022-10-16T04:26:41;13.00;1.00
9375;DHT22;4727;51.202;6.344;2022-10-16T04:29:07;13.00;1.00
9375;DHT22;4727;51.202;6.344;2022-10-16T04:31:33;13.00;1.00
9375;DHT22;4727;51.202;6.344;2022-10-16T04:33:58;12.80;1.00
9375;DHT22;4727;51.202;6.344;2022-10-16T04:36:24;12.90;1.00
9375;DHT22;4727;51.202;6.344;2022-10-16T04:38:50;12.90;1.00
9375;DHT22;4727;51.202;6.344;2022-10-16T04:41:15;12.90;1.00
9375;DHT22;4727;51.202;6.344;2022-10-16T04:43:41;12.90;1.00
9375;DHT22;4727;51.202;6.344;2022-10-16T04:46:06;12.90;1.00
9375;DHT22;4727;51.202;6.344;2022-10-16T04:48:32;12.90;1.00
9375;DHT22;4727;51.202;6.344;2022-10-16T04:50:58;12.90;1.00
9375;DHT22;4727;51.202;6.344;2022-10-16T04:53:24;12.80;1.00
9375;DHT22;4727;51.202;6.344;2022-10-16T04:55:50;12.90;1.00
9375;DHT22;4727;51.202;6.344;2022-10-16T04:58:16;12.90;1.00
9375;DHT22;4727;51.202;6.344;2022-10-16T05:00:42;12.80;1.00
9375;DHT22;4727;51.202;6.344;2022-10-16T05:03:08;12.90;1.00
9375;DHT22;4727;51.202;6.344;2022-10-16T05:05:35;12.90;13.20
9375;DHT22;4727;51.202;6.344;2022-10-16T05:08:01;12.90;55.20
9375;DHT22;4727;51.202;6.344;2022-10-16T05:10:27;12.90;85.20
9375;DHT22;4727;51.202;6.344;2022-10-16T05:12:53;12.90;68.60
9375;DHT22;4727;51.202;6.344;2022-10-16T05:15:19;12.90;87.90
9375;DHT22;4727;51.202;6.344;2022-10-16T05:17:45;12.90;99.20
9375;DHT22;4727;51.202;6.344;2022-10-16T05:20:11;12.90;99.90
9375;DHT22;4727;51.202;6.344;2022-10-16T05:22:37;12.80;84.90
9375;DHT22;4727;51.202;6.344;2022-10-16T05:25:02;12.90;90.90
9375;DHT22;4727;51.202;6.344;2022-10-16T05:27:28;12.90;95.00
9375;DHT22;4727;51.202;6.344;2022-10-16T05:29:53;12.90;91.40
9375;DHT22;4727;51.202;6.344;2022-10-16T05:32:19;12.90;67.50
9375;DHT22;4727;51.202;6.344;2022-10-16T05:34:45;12.90;99.90
9375;DHT22;4727;51.202;6.344;2022-10-16T05:37:11;12.90;99.90
9375;DHT22;4727;51.202;6.344;2022-10-16T05:39:37;12.80;99.90
9375;DHT22;4727;51.202;6.344;2022-10-16T05:42:04;12.80;99.90
9375;DHT22;4727;51.202;6.344;2022-10-16T05:44:30;13.00;99.90
9375;DHT22;4727;51.202;6.344;2022-10-16T05:46:55;12.90;99.90
9375;DHT22;4727;51.202;6.344;2022-10-16T05:49:21;12.80;99.90
9375;DHT22;4727;51.202;6.344;2022-10-16T05:51:46;12.80;99.90
9375;DHT22;4727;51.202;6.344;2022-10-16T05:54:12;12.80;99.90
9375;DHT22;4727;51.202;6.344;2022-10-16T05:56:38;12.80;99.90
9375;DHT22;4727;51.202;6.344;2022-10-16T05:59:04;12.80;99.90
9375;DHT22;4727;51.202;6.344;2022-10-16T06:01:29;12.80;99.90
9375;DHT22;4727;51.202;6.344;2022-10-16T06:03:56;12.80;99.90
9375;DHT22;4727;51.202;6.344;2022-10-16T06:06:25;12.80;99.90
9375;DHT22;4727;51.202;6.344;2022-10-16T06:08:52;12.70;99.90
9375;DHT22;4727;51.202;6.344;2022-10-16T06:11:26;12.80;99.90
9375;DHT22;4727;51.202;6.344;2022-10-16T06:13:56;12.90;99.90
9375;DHT22;4727;51.202;6.344;2022-10-16T06:16:23;12.80;99.90
9375;DHT22;4727;51.202;6.344;2022-10-16T06:18:51;12.80;99.90
9375;DHT22;4727;51.202;6.344;2022-10-16T06:21:19;12.80;99.90
9375;DHT22;4727;51.202;6.344;2022-10-16T06:23:45;12.80;99.90
9375;DHT22;4727;51.202;6.344;2022-10-16T06:26:16;12.70;99.90
9375;DHT22;4727;51.202;6.344;2022-10-16T06:28:42;12.80;99.90
9375;DHT22;4727;51.202;6.344;2022-10-16T06:31:10;12.70;99.90
9375;DHT22;4727;51.202;6.344;2022-10-16T06:33:37;12.90;99.90
9375;DHT22;4727;51.202;6.344;2022-10-16T06:36:13;12.90;99.90
9375;DHT22;4727;51.202;6.344;2022-10-16T06:38:40;12.90;99.90
9375;DHT22;4727;51.202;6.344;2022-10-16T06:41:07;13.00;99.90
9375;DHT22;4727;51.202;6.344;2022-10-16T06:43:33;12.80;99.90
9375;DHT22;4727;51.202;6.344;2022-10-16T06:46:01;13.00;99.90
9375;DHT22;4727;51.202;6.344;2022-10-16T06:48:27;13.00;99.90
9375;DHT22;4727;51.202;6.344;2022-10-16T06:53:31;12.90;99.90
9375;DHT22;4727;51.202;6.344;2022-10-16T06:55:57;13.00;99.90
9375;DHT22;4727;51.202;6.344;2022-10-16T06:58:23;13.00;99.90
9375;DHT22;4727;51.202;6.344;2022-10-16T07:00:55;13.00;99.90
9375;DHT22;4727;51.202;6.344;2022-10-16T07:03:21;13.00;99.90
9375;DHT22;4727;51.202;6.344;2022-10-16T07:05:46;13.00;99.90
9375;DHT22;4727;51.202;6.344;2022-10-16T07:08:12;13.00;99.90
9375;DHT22;4727;51.202;6.344;2022-10-16T07:10:38;13.00;99.90
9375;DHT22;4727;51.202;6.344;2022-10-16T07:13:03;13.00;99.90
9375;DHT22;4727;51.202;6.344;2022-10-16T07:15:29;13.00;99.90
9375;DHT22;4727;51.202;6.344;2022-10-16T07:17:55;13.00;99.90
9375;DHT22;4727;51.202;6.344;2022-10-16T07:20:20;13.00;99.90
9375;DHT22;4727;51.202;6.344;2022-10-16T07:22:46;13.00;99.90
9375;DHT22;4727;51.202;6.344;2022-10-16T07:25:12;13.00;99.90
9375;DHT22;4727;51.202;6.344;2022-10-16T07:27:38;13.10;99.90
9375;DHT22;4727;51.202;6.344;2022-10-16T07:30:04;13.00;99.90
9375;DHT22;4727;51.202;6.344;2022-10-16T07:32:31;13.10;99.90
9375;DHT22;4727;51.202;6.344;2022-10-16T07:34:56;13.10;99.90
9375;DHT22;4727;51.202;6.344;2022-10-16T07:37:22;13.20;99.90
9375;DHT22;4727;51.202;6.344;2022-10-16T07:39:48;13.20;99.90
9375;DHT22;4727;51.202;6.344;2022-10-16T07:42:13;13.30;99.90
9375;DHT22;4727;51.202;6.344;2022-10-16T07:44:39;13.40;99.90
9375;DHT22;4727;51.202;6.344;2022-10-16T07:47:06;13.50;99.90
9375;DHT22;4727;51.202;6.344;2022-10-16T07:49:31;13.50;99.90
9375;DHT22;4727;51.202;6.344;2022-10-16T07:51:57;13.70;92.00
9375;DHT22;4727;51.202;6.344;2022-10-16T07:54:23;13.70;40.70
9375;DHT22;4727;51.202;6.344;2022-10-16T07:56:48;13.80;1.00
9375;DHT22;4727;51.202;6.344;2022-10-16T07:59:16;13.90;1.00
9375;DHT22;4727;51.202;6.344;2022-10-16T08:01:42;14.00;1.00
9375;DHT22;4727;51.202;6.344;2022-10-16T08:04:09;14.00;1.00
9375;DHT22;4727;51.202;6.344;2022-10-16T08:06:36;14.10;1.00
9375;DHT22;4727;51.202;6.344;2022-10-16T08:09:02;14.20;99.90
9375;DHT22;4727;51.202;6.344;2022-10-16T08:11:28;14.20;99.90
9375;DHT22;4727;51.202;6.344;2022-10-16T08:13:53;14.20;99.90
9375;DHT22;4727;51.202;6.344;2022-10-16T08:16:19;14.40;99.90
9375;DHT22;4727;51.202;6.344;2022-10-16T08:18:45;14.40;99.90
9375;DHT22;4727;51.202;6.344;2022-10-16T08:21:14;14.60;1.00
9375;DHT22;4727;51.202;6.344;2022-10-16T08:23:40;14.60;1.00
9375;DHT22;4727;51.202;6.344;2022-10-16T08:26:07;14.70;1.00
9375;DHT22;4727;51.202;6.344;2022-10-16T08:28:34;14.90;99.90
9375;DHT22;4727;51.202;6.344;2022-10-16T08:31:26;14.90;99.90
9375;DHT22;4727;51.202;6.344;2022-10-16T08:33:52;15.10;99.90
9375;DHT22;4727;51.202;6.344;2022-10-16T08:36:18;15.10;99.90
9375;DHT22;4727;51.202;6.344;2022-10-16T08:38:46;15.20;1.00
9375;DHT22;4727;51.202;6.344;2022-10-16T08:41:36;15.30;99.90
9375;DHT22;4727;51.202;6.344;2022-10-16T08:50:00;15.60;1.00
9375;DHT22;4727;51.202;6.344;2022-10-16T08:52:33;15.60;1.00
9375;DHT22;4727;51.202;6.344;2022-10-16T08:55:01;15.70;99.90
9375;DHT22;4727;51.202;6.344;2022-10-16T08:57:27;15.70;99.90
9375;DHT22;4727;51.202;6.344;2022-10-16T08:59:54;15.80;99.90
9375;DHT22;4727;51.202;6.344;2022-10-16T09:07:59;16.00;99.90
9375;DHT22;4727;51.202;6.344;2022-10-16T09:10:49;16.00;1.00
9375;DHT22;4727;51.202;6.344;2022-10-16T09:13:36;16.00;1.00
9375;DHT22;4727;51.202;6.344;2022-10-16T09:16:15;16.10;1.00
9375;DHT22;4727;51.202;6.344;2022-10-16T09:19:01;16.20;99.90
9375;DHT22;4727;51.202;6.344;2022-10-16T09:21:36;16.10;99.90
9375;DHT22;4727;51.202;6.344;2022-10-16T09:24:30;16.10;99.90
9375;DHT22;4727;51.202;6.344;2022-10-16T09:26:56;16.30;98.20
9375;DHT22;4727;51.202;6.344;2022-10-16T09:29:22;16.40;99.90
9375;DHT22;4727;51.202;6.344;2022-10-16T09:31:51;16.40;1.00
9375;DHT22;4727;51.202;6.344;2022-10-16T09:34:39;16.50;99.90
9375;DHT22;4727;51.202;6.344;2022-10-16T09:37:14;16.50;99.90
9375;DHT22;4727;51.202;6.344;2022-10-16T09:42:31;16.60;99.90
9375;DHT22;4727;51.202;6.344;2022-10-16T09:44:57;16.70;99.90
9375;DHT22;4727;51.202;6.344;2022-10-16T09:47:25;16.70;99.90
9375;DHT22;4727;51.202;6.344;2022-10-16T09:49:57;16.70;1.00
9375;DHT22;4727;51.202;6.344;2022-10-16T09:52:25;16.70;1.00
9375;DHT22;4727;51.202;6.344;2022-10-16T09:54:53;16.80;30.00
9375;DHT22;4727;51.202;6.344;2022-10-16T09:57:20;16.90;99.90
9375;DHT22;4727;51.202;6.344;2022-10-16T09:59:51;17.00;1.00
9375;DHT22;4727;51.202;6.344;2022-10-16T10:02:19;17.00;1.00
9375;DHT22;4727;51.202;6.344;2022-10-16T10:04:51;17.10;99.90
9375;DHT22;4727;51.202;6.344;2022-10-16T10:07:24;17.00;1.00
9375;DHT22;4727;51.202;6.344;2022-10-16T10:09:51;17.10;99.90
9375;DHT22;4727;51.202;6.344;2022-10-16T10:12:22;17.20;99.90
9375;DHT22;4727;51.202;6.344;2022-10-16T10:14:51;17.20;99.90
9375;DHT22;4727;51.202;6.344;2022-10-16T10:24:45;17.50;99.90
9375;DHT22;4727;51.202;6.344;2022-10-16T10:27:19;17.50;1.00
9375;DHT22;4727;51.202;6.344;2022-10-16T10:29:58;17.70;99.90
9375;DHT22;4727;51.202;6.344;2022-10-16T10:32:52;17.60;99.90
9375;DHT22;4727;51.202;6.344;2022-10-16T10:35:44;17.60;99.90
9375;DHT22;4727;51.202;6.344;2022-10-16T10:38:38;17.60;1.00
9375;DHT22;4727;51.202;6.344;2022-10-16T10:44:03;17.60;99.90
9375;DHT22;4727;51.202;6.344;2022-10-16T10:46:41;17.50;1.00
9375;DHT22;4727;51.202;6.344;2022-10-16T10:49:23;17.60;99.90
9375;DHT22;4727;51.202;6.344;2022-10-16T10:54:31;17.90;1.00
9375;DHT22;4727;51.202;6.344;2022-10-16T10:57:09;17.90;99.90
9375;DHT22;4727;51.202;6.344;2022-10-16T11:02:46;17.80;1.00
9375;DHT22;4727;51.202;6.344;2022-10-16T11:05:35;17.70;83.00
9375;DHT22;4727;51.202;6.344;2022-10-16T11:08:21;17.70;1.00
9375;DHT22;4727;51.202;6.344;2022-10-16T11:10:58;17.60;99.90
9375;DHT22;4727;51.202;6.344;2022-10-16T11:13:55;17.50;1.00
9375;DHT22;4727;51.202;6.344;2022-10-16T11:16:28;17.70;1.00
9375;DHT22;4727;51.202;6.344;2022-10-16T11:19:05;17.80;1.00
9375;DHT22;4727;51.202;6.344;2022-10-16T11:21:49;18.00;1.00
9375;DHT22;4727;51.202;6.344;2022-10-16T11:24:22;18.20;1.00
9375;DHT22;4727;51.202;6.344;2022-10-16T11:26:49;17.90;54.70
9375;DHT22;4727;51.202;6.344;2022-10-16T11:29:23;18.00;1.00
9375;DHT22;4727;51.202;6.344;2022-10-16T11:31:53;18.10;1.00
9375;DHT22;4727;51.202;6.344;2022-10-16T11:34:38;18.20;1.00
9375;DHT22;4727;51.202;6.344;2022-10-16T11:37:31;18.40;99.90
9375;DHT22;4727;51.202;6.344;2022-10-16T11:40:03;18.50;1.00
9375;DHT22;4727;51.202;6.344;2022-10-16T11:42:44;18.60;1.00
9375;DHT22;4727;51.202;6.344;2022-10-16T11:45:33;18.60;1.00
9375;DHT22;4727;51.202;6.344;2022-10-16T11:48:15;18.60;1.00
9375;DHT22;4727;51.202;6.344;2022-10-16T11:56:41;18.70;99.90
9375;DHT22;4727;51.202;6.344;2022-10-16T11:59:32;18.70;1.00
9375;DHT22;4727;51.202;6.344;2022-10-16T12:05:06;19.10;1.00
9375;DHT22;4727;51.202;6.344;2022-10-16T12:07:41;19.20;1.00
9375;DHT22;4727;51.202;6.344;2022-10-16T12:10:20;19.00;99.90
9375;DHT22;4727;51.202;6.344;2022-10-16T12:12:46;18.90;99.90
9375;DHT22;4727;51.202;6.344;2022-10-16T12:17:46;19.10;99.90
9375;DHT22;4727;51.202;6.344;2022-10-16T12:22:41;19.10;1.00
9375;DHT22;4727;51.202;6.344;2022-10-16T12:25:29;18.90;1.00
9375;DHT22;4727;51.202;6.344;2022-10-16T12:28:17;19.00;59.70
9375;DHT22;4727;51.202;6.344;2022-10-16T12:30:56;19.00;1.00
9375;DHT22;4727;51.202;6.344;2022-10-16T12:33:25;19.00;99.90
9375;DHT22;4727;51.202;6.344;2022-10-16T12:35:52;18.80;99.90
9375;DHT22;4727;51.202;6.344;2022-10-16T12:38:28;19.00;1.00
9375;DHT22;4727;51.202;6.344;2022-10-16T12:40:59;19.00;1.00
9375;DHT22;4727;51.202;6.344;2022-10-16T12:43:27;19.10;99.90
9375;DHT22;4727;51.202;6.344;2022-10-16T12:48:41;19.10;1.00
9375;DHT22;4727;51.202;6.344;2022-10-16T12:54:02;19.20;99.90
9375;DHT22;4727;51.202;6.344;2022-10-16T13:01:52;19.30;99.90
9375;DHT22;4727;51.202;6.344;2022-10-16T13:04:29;19.30;1.00
9375;DHT22;4727;51.202;6.344;2022-10-16T13:10:21;19.10;1.00
9375;DHT22;4727;51.202;6.344;2022-10-16T13:18:50;18.80;1.00
9375;DHT22;4727;51.202;6.344;2022-10-16T13:21:35;18.80;1.00
9375;DHT22;4727;51.202;6.344;2022-10-16T13:24:16;18.80;99.90
9375;DHT22;4727;51.202;6.344;2022-10-16T13:27:07;18.80;1.00
9375;DHT22;4727;51.202;6.344;2022-10-16T13:29:36;19.00;1.00
9375;DHT22;4727;51.202;6.344;2022-10-16T13:32:07;19.00;1.00
9375;DHT22;4727;51.202;6.344;2022-10-16T13:34:44;19.10;99.90
9375;DHT22;4727;51.202;6.344;2022-10-16T13:37:18;19.20;1.00
9375;DHT22;4727;51.202;6.344;2022-10-16T13:39:44;19.30;99.90
9375;DHT22;4727;51.202;6.344;2022-10-16T13:42:13;19.30;99.90
9375;DHT22;4727;51.202;6.344;2022-10-16T13:44:51;19.40;1.00
9375;DHT22;4727;51.202;6.344;2022-10-16T13:47:21;19.80;1.00
9375;DHT22;4727;51.202;6.344;2022-10-16T13:49:58;20.00;99.90
9375;DHT22;4727;51.202;6.344;2022-10-16T13:52:27;20.00;99.90
9375;DHT22;4727;51.202;6.344;2022-10-16T13:54:53;20.00;99.90
9375;DHT22;4727;51.202;6.344;2022-10-16T13:57:22;19.90;99.90
9375;DHT22;4727;51.202;6.344;2022-10-16T13:59:48;19.80;1.00
9375;DHT22;4727;51.202;6.344;2022-10-16T14:02:33;19.70;1.00
9375;DHT22;4727;51.202;6.344;2022-10-16T14:05:02;19.60;1.00
9375;DHT22;4727;51.202;6.344;2022-10-16T14:07:31;19.70;1.00
9375;DHT22;4727;51.202;6.344;2022-10-16T14:10:05;19.60;99.90
9375;DHT22;4727;51.202;6.344;2022-10-16T14:12:31;19.60;1.00
9375;DHT22;4727;51.202;6.344;2022-10-16T14:14:58;19.60;1.00
9375;DHT22;4727;51.202;6.344;2022-10-16T14:17:30;19.50;1.00
9375;DHT22;4727;51.202;6.344;2022-10-16T14:19:58;19.50;99.90
9375;DHT22;4727;51.202;6.344;2022-10-16T14:22:33;19.50;99.90
9375;DHT22;4727;51.202;6.344;2022-10-16T14:24:59;19.40;1.00
9375;DHT22;4727;51.202;6.344;2022-10-16T14:27:34;19.40;1.00
9375;DHT22;4727;51.202;6.344;2022-10-16T14:32:40;19.30;1.00
9375;DHT22;4727;51.202;6.344;2022-10-16T14:35:25;19.30;1.00
9375;DHT22;4727;51.202;6.344;2022-10-16T14:37:55;19.30;1.00
9375;DHT22;4727;51.202;6.344;2022-10-16T14:40:31;19.30;1.00
9375;DHT22;4727;51.202;6.344;2022-10-16T14:42:57;19.30;1.00
9375;DHT22;4727;51.202;6.344;2022-10-16T14:45:29;19.20;1.00
9375;DHT22;4727;51.202;6.344;2022-10-16T14:47:58;19.10;1.00
9375;DHT22;4727;51.202;6.344;2022-10-16T14:50:24;19.10;1.00
9375;DHT22;4727;51.202;6.344;2022-10-16T14:52:50;19.10;1.00
9375;DHT22;4727;51.202;6.344;2022-10-16T14:55:16;19.20;92.40
9375;DHT22;4727;51.202;6.344;2022-10-16T14:57:42;19.20;99.90
9375;DHT22;4727;51.202;6.344;2022-10-16T15:00:18;19.20;1.00
9375;DHT22;4727;51.202;6.344;2022-10-16T15:02:45;19.20;99.90
9375;DHT22;4727;51.202;6.344;2022-10-16T15:05:18;19.20;1.00
9375;DHT22;4727;51.202;6.344;2022-10-16T15:07:44;19.20;1.00
9375;DHT22;4727;51.202;6.344;2022-10-16T15:10:11;19.20;1.00
9375;DHT22;4727;51.202;6.344;2022-10-16T15:12:37;19.20;1.00
9375;DHT22;4727;51.202;6.344;2022-10-16T15:17:47;19.20;1.00
9375;DHT22;4727;51.202;6.344;2022-10-16T15:20:13;19.20;1.00
9375;DHT22;4727;51.202;6.344;2022-10-16T15:22:38;19.20;99.90
9375;DHT22;4727;51.202;6.344;2022-10-16T15:27:54;19.10;15.70
9375;DHT22;4727;51.202;6.344;2022-10-16T15:30:19;19.00;99.90
9375;DHT22;4727;51.202;6.344;2022-10-16T15:32:45;19.00;99.90
9375;DHT22;4727;51.202;6.344;2022-10-16T15:35:10;18.90;99.90
9375;DHT22;4727;51.202;6.344;2022-10-16T15:37:36;18.90;99.90
9375;DHT22;4727;51.202;6.344;2022-10-16T15:40:02;18.90;99.90
9375;DHT22;4727;51.202;6.344;2022-10-16T15:42:28;18.90;1.00
9375;DHT22;4727;51.202;6.344;2022-10-16T15:44:53;18.80;1.00
9375;DHT22;4727;51.202;6.344;2022-10-16T15:47:19;18.80;1.00
9375;DHT22;4727;51.202;6.344;2022-10-16T15:49:44;18.80;1.00
9375;DHT22;4727;51.202;6.344;2022-10-16T15:52:11;18.70;1.00
9375;DHT22;4727;51.202;6.344;2022-10-16T15:54:37;18.70;1.00
9375;DHT22;4727;51.202;6.344;2022-10-16T15:57:02;18.60;1.00
9375;DHT22;4727;51.202;6.344;2022-10-16T15:59:28;18.60;1.00
9375;DHT22;4727;51.202;6.344;2022-10-16T16:01:53;18.70;59.60
9375;DHT22;4727;51.202;6.344;2022-10-16T16:04:19;18.50;99.90
9375;DHT22;4727;51.202;6.344;2022-10-16T16:06:44;18.40;1.00
9375;DHT22;4727;51.202;6.344;2022-10-16T16:09:11;18.50;1.00
9375;DHT22;4727;51.202;6.344;2022-10-16T16:11:37;18.50;2.90
9375;DHT22;4727;51.202;6.344;2022-10-16T16:14:05;18.40;42.10
9375;DHT22;4727;51.202;6.344;2022-10-16T16:16:31;18.40;71.50
9375;DHT22;4727;51.202;6.344;2022-10-16T16:19:02;18.40;94.20
9375;DHT22;4727;51.202;6.344;2022-10-16T16:21:28;18.30;99.90
9375;DHT22;4727;51.202;6.344;2022-10-16T16:23:54;18.40;99.90
9375;DHT22;4727;51.202;6.344;2022-10-16T16:26:24;18.30;99.90
9375;DHT22;4727;51.202;6.344;2022-10-16T16:28:52;18.30;99.90
9375;DHT22;4727;51.202;6.344;2022-10-16T16:31:18;18.30;99.90
9375;DHT22;4727;51.202;6.344;2022-10-16T16:33:43;18.20;99.90
9375;DHT22;4727;51.202;6.344;2022-10-16T16:36:09;18.20;99.90
9375;DHT22;4727;51.202;6.344;2022-10-16T16:38:34;18.10;1.00
9375;DHT22;4727;51.202;6.344;2022-10-16T16:41:13;18.10;1.00
9375;DHT22;4727;51.202;6.344;2022-10-16T16:43:39;18.00;99.90
9375;DHT22;4727;51.202;6.344;2022-10-16T16:46:05;17.90;99.90
9375;DHT22;4727;51.202;6.344;2022-10-16T16:48:32;17.80;99.90
9375;DHT22;4727;51.202;6.344;2022-10-16T16:51:09;17.90;99.90
9375;DHT22;4727;51.202;6.344;2022-10-16T16:53:37;17.80;99.90
9375;DHT22;4727;51.202;6.344;2022-10-16T16:56:04;17.80;12.70
9375;DHT22;4727;51.202;6.344;2022-10-16T16:58:30;17.80;99.90
9375;DHT22;4727;51.202;6.344;2022-10-16T17:00:56;17.80;99.90
9375;DHT22;4727;51.202;6.344;2022-10-16T17:03:26;17.70;99.90
9375;DHT22;4727;51.202;6.344;2022-10-16T17:06:06;17.80;99.90
9375;DHT22;4727;51.202;6.344;2022-10-16T17:08:33;17.60;99.90
9375;DHT22;4727;51.202;6.344;2022-10-16T17:11:00;17.60;1.00
9375;DHT22;4727;51.202;6.344;2022-10-16T17:13:28;17.60;1.00
9375;DHT22;4727;51.202;6.344;2022-10-16T17:15:54;17.60;99.90
9375;DHT22;4727;51.202;6.344;2022-10-16T17:18:22;17.60;99.90
9375;DHT22;4727;51.202;6.344;2022-10-16T17:20:48;17.60;99.90
9375;DHT22;4727;51.202;6.344;2022-10-16T17:23:15;17.50;99.90
9375;DHT22;4727;51.202;6.344;2022-10-16T17:25:41;17.50;99.90
9375;DHT22;4727;51.202;6.344;2022-10-16T17:28:08;17.50;63.80
9375;DHT22;4727;51.202;6.344;2022-10-16T17:30:36;17.50;99.90
9375;DHT22;4727;51.202;6.344;2022-10-16T17:33:03;17.50;37.90
9375;DHT22;4727;51.202;6.344;2022-10-16T17:35:35;17.40;1.00
9375;DHT22;4727;51.202;6.344;2022-10-16T17:38:00;17.40;1.00
9375;DHT22;4727;51.202;6.344;2022-10-16T17:40:26;17.30;1.00
9375;DHT22;4727;51.202;6.344;2022-10-16T17:42:51;17.30;1.00
9375;DHT22;4727;51.202;6.344;2022-10-16T17:45:17;17.30;1.00